Time;durP1;ratioP1;P1;durP2;ratioP2;P2;SDS_P1;SDS_P2;PMS_P1;PMS_P2;Temp;Humidity;BMP_temperature;BMP_pressure;BME280_temperature;BME280_humidity;BME280_pressure;Samples;Min_cycle;Max_cycle;Signal;HPM_P1;HPM_P2
2023/01/31 00:01:33;;;;;;;11.33;6.40;;;3.40;99.90;;;;;;5056623;28;20202;-55
2023/01/31 00:04:01;;;;;;;8.60;6.40;;;3.40;99.90;;;;;;5063902;28;20179;-52
2023/01/31 00:06:38;;;;;;;11.80;6.17;;;3.20;99.90;;;;;;5044063;28;20185;-49
2023/01/31 00:09:06;;;;;;;10.23;5.63;;;3.20;99.90;;;;;;5062778;28;20177;-52
2023/01/31 00:11:32;;;;;;;10.50;5.77;;;3.30;99.90;;;;;;5051719;28;20175;-50
2023/01/31 00:13:58;;;;;;;7.37;5.30;;;3.40;99.90;;;;;;5051554;28;20214;-52
2023/01/31 00:16:25;;;;;;;9.47;6.43;;;3.40;99.90;;;;;;5059066;28;20205;-52
2023/01/31 00:18:51;;;;;;;11.40;6.17;;;3.40;99.90;;;;;;5054895;28;20167;-52
2023/01/31 00:21:27;;;;;;;6.77;5.47;;;3.40;99.90;;;;;;5050711;28;20256;-51
2023/01/31 00:23:54;;;;;;;9.13;5.90;;;3.30;99.90;;;;;;5050882;28;20185;-55
2023/01/31 00:26:22;;;;;;;7.57;5.53;;;3.30;99.90;;;;;;5067463;28;20167;-53
2023/01/31 00:28:49;;;;;;;9.90;5.93;;;3.20;99.90;;;;;;5068197;28;20174;-52
2023/01/31 00:31:16;;;;;;;9.63;6.10;;;3.20;99.90;;;;;;5058740;28;20198;-52
2023/01/31 00:33:43;;;;;;;8.70;5.87;;;3.20;99.90;;;;;;5060440;28;20185;-51
2023/01/31 00:36:17;;;;;;;8.07;5.47;;;3.10;99.90;;;;;;5068797;28;20182;-51
2023/01/31 00:38:43;;;;;;;9.07;6.03;;;3.10;99.90;;;;;;5046364;28;20205;-50
2023/01/31 00:41:10;;;;;;;9.50;5.70;;;3.10;99.90;;;;;;5064849;28;20271;-54
2023/01/31 00:43:36;;;;;;;10.00;6.00;;;3.10;99.90;;;;;;5060306;28;20202;-50
2023/01/31 00:46:02;;;;;;;8.07;5.70;;;3.10;99.90;;;;;;5068919;28;20188;-49
2023/01/31 00:48:28;;;;;;;9.93;5.53;;;3.20;99.90;;;;;;5068456;28;20182;-49
2023/01/31 00:50:54;;;;;;;8.40;5.57;;;3.20;99.90;;;;;;5052614;28;20244;-49
2023/01/31 00:53:22;;;;;;;11.33;5.60;;;3.20;99.90;;;;;;5050317;28;20174;-51
2023/01/31 00:55:54;;;;;;;7.70;5.13;;;3.30;99.90;;;;;;5055334;28;20202;-49
2023/01/31 00:58:21;;;;;;;8.03;5.47;;;3.20;99.90;;;;;;5068902;28;20185;-54
2023/01/31 01:00:47;;;;;;;10.40;5.83;;;3.20;99.90;;;;;;5054805;28;20237;-53
2023/01/31 01:03:13;;;;;;;12.37;6.30;;;3.10;99.90;;;;;;5060200;28;20259;-49
2023/01/31 01:05:39;;;;;;;8.97;5.70;;;3.10;99.90;;;;;;5070450;28;20663;-49
2023/01/31 01:08:05;;;;;;;7.90;5.67;;;3.10;99.90;;;;;;5055621;28;20179;-49
2023/01/31 01:10:31;;;;;;;12.83;5.93;;;3.10;99.90;;;;;;5061093;28;20622;-51
2023/01/31 01:12:56;;;;;;;9.90;5.43;;;3.30;99.90;;;;;;5059296;28;20202;-50
2023/01/31 01:15:22;;;;;;;10.27;5.80;;;3.40;99.90;;;;;;5053592;28;20351;-49
2023/01/31 01:17:48;;;;;;;8.20;5.77;;;3.30;99.90;;;;;;5054402;28;20271;-51
2023/01/31 01:20:13;;;;;;;9.60;5.77;;;3.30;99.90;;;;;;5059633;28;20221;-50
2023/01/31 01:22:41;;;;;;;9.03;5.83;;;3.10;99.90;;;;;;5073688;28;20241;-51
2023/01/31 01:25:08;;;;;;;8.23;5.77;;;3.00;99.90;;;;;;5061005;28;20644;-52
2023/01/31 01:27:33;;;;;;;8.27;6.03;;;3.00;99.90;;;;;;5071096;28;20189;-52
2023/01/31 01:30:00;;;;;;;10.03;5.60;;;3.00;99.90;;;;;;5073975;28;20210;-52
2023/01/31 01:32:27;;;;;;;8.93;5.80;;;3.10;99.90;;;;;;5063610;28;20194;-48
2023/01/31 01:34:52;;;;;;;12.43;5.93;;;3.00;99.90;;;;;;5056435;28;20177;-50
2023/01/31 01:37:20;;;;;;;10.53;6.00;;;3.10;99.90;;;;;;5062350;28;20663;-50
2023/01/31 01:39:51;;;;;;;7.60;5.40;;;3.00;99.90;;;;;;5073521;28;20328;-53
2023/01/31 01:42:18;;;;;;;11.63;6.20;;;3.00;99.90;;;;;;5070446;28;20201;-51
2023/01/31 01:44:44;;;;;;;7.90;5.97;;;3.00;99.90;;;;;;5064389;28;20166;-52
2023/01/31 01:47:21;;;;;;;10.80;5.57;;;3.00;99.90;;;;;;5056705;28;20176;-49
2023/01/31 01:49:53;;;;;;;7.07;5.43;;;3.00;99.90;;;;;;5061430;28;20190;-52
2023/01/31 01:52:20;;;;;;;11.27;6.40;;;3.10;99.90;;;;;;5071804;28;20166;-50
2023/01/31 01:54:52;;;;;;;9.97;5.90;;;3.10;99.90;;;;;;5067195;28;20181;-51
2023/01/31 01:57:26;;;;;;;13.50;6.40;;;3.00;99.90;;;;;;5062483;28;20651;-49
2023/01/31 02:00:18;;;;;;;7.90;5.10;;;3.00;99.90;;;;;;5069369;28;20738;-50
2023/01/31 02:02:46;;;;;;;9.00;5.47;;;3.20;99.90;;;;;;5071636;28;20213;-53
2023/01/31 02:05:16;;;;;;;9.53;5.43;;;3.20;99.90;;;;;;5073016;28;20174;-54
2023/01/31 02:07:42;;;;;;;9.80;5.43;;;3.20;99.90;;;;;;5061048;28;20671;-54
2023/01/31 02:10:19;;;;;;;11.47;5.97;;;3.10;99.90;;;;;;5053456;28;20253;-51
2023/01/31 02:12:45;;;;;;;12.10;5.50;;;3.00;99.90;;;;;;5065278;28;20178;-50
2023/01/31 02:15:10;;;;;;;11.17;6.10;;;3.00;99.90;;;;;;5057532;28;20622;-49
2023/01/31 02:17:36;;;;;;;8.93;5.70;;;3.10;99.90;;;;;;5053159;28;20190;-53
2023/01/31 02:20:24;;;;;;;9.07;5.90;;;3.10;99.90;;;;;;5063084;28;20194;-49
2023/01/31 02:23:01;;;;;;;12.03;6.10;;;3.10;99.90;;;;;;5036720;28;20194;-49
2023/01/31 02:25:50;;;;;;;9.20;5.50;;;3.10;99.90;;;;;;5060079;28;20561;-54
2023/01/31 02:28:24;;;;;;;9.27;5.70;;;3.00;99.90;;;;;;5061792;28;20190;-49
2023/01/31 02:31:17;;;;;;;8.27;5.73;;;3.00;99.90;;;;;;5055838;28;20213;-52
2023/01/31 02:33:56;;;;;;;8.70;5.30;;;3.00;99.90;;;;;;5054207;28;20174;-52
2023/01/31 02:36:30;;;;;;;8.13;5.53;;;3.00;99.90;;;;;;5070605;28;20182;-50
2023/01/31 02:39:18;;;;;;;9.87;5.67;;;3.00;99.90;;;;;;5054310;28;20242;-51
2023/01/31 02:41:52;;;;;;;9.20;5.90;;;3.00;99.90;;;;;;5059924;28;20202;-50
2023/01/31 02:47:27;;;;;;;8.23;5.47;;;3.00;99.90;;;;;;5056483;28;20575;-56
2023/01/31 02:50:00;;;;;;;11.67;5.63;;;3.10;99.90;;;;;;5061241;28;20273;-50
2023/01/31 02:52:35;;;;;;;11.00;5.20;;;3.10;99.90;;;;;;5052805;28;20187;-52
2023/01/31 02:58:08;;;;;;;9.73;5.47;;;3.10;99.90;;;;;;5061475;28;20182;-53
2023/01/31 03:00:37;;;;;;;6.53;4.77;;;3.10;99.90;;;;;;5056031;28;20285;-52
2023/01/31 03:03:07;;;;;;;9.17;5.83;;;3.10;99.90;;;;;;5071742;28;20198;-51
2023/01/31 03:05:32;;;;;;;9.47;5.70;;;3.10;99.90;;;;;;5058990;28;20174;-49
2023/01/31 03:08:03;;;;;;;9.70;5.20;;;3.10;99.90;;;;;;5052289;28;20493;-51
2023/01/31 03:10:58;;;;;;;8.27;5.83;;;3.20;99.90;;;;;;5065084;28;20198;-50
2023/01/31 03:13:33;;;;;;;12.73;5.53;;;3.20;99.90;;;;;;5072065;28;20182;-50
2023/01/31 03:19:12;;;;;;;8.63;5.33;;;3.10;99.90;;;;;;5056157;28;20205;-54
2023/01/31 03:21:51;;;;;;;9.00;5.20;;;3.10;99.90;;;;;;5041218;28;20175;-53
2023/01/31 03:24:18;;;;;;;8.47;5.27;;;3.10;99.90;;;;;;5052755;28;20249;-49
2023/01/31 03:26:45;;;;;;;9.03;5.03;;;3.20;99.90;;;;;;5051664;28;20305;-49
2023/01/31 03:29:15;;;;;;;9.57;5.27;;;3.30;99.90;;;;;;5054457;28;20163;-52
2023/01/31 03:32:08;;;;;;;8.00;5.47;;;3.30;99.90;;;;;;5051534;28;20171;-53
2023/01/31 03:34:34;;;;;;;10.10;5.63;;;3.20;99.90;;;;;;5059339;28;20190;-52
2023/01/31 03:36:59;;;;;;;9.23;5.30;;;3.20;99.90;;;;;;5067863;28;20224;-50
2023/01/31 03:39:36;;;;;;;9.40;5.03;;;3.10;99.90;;;;;;5052907;28;20267;-51
2023/01/31 03:42:08;;;;;;;9.53;5.10;;;3.10;99.90;;;;;;5051617;28;20559;-52
2023/01/31 03:44:55;;;;;;;11.17;5.90;;;3.10;99.90;;;;;;5052597;28;20175;-50
2023/01/31 03:47:40;;;;;;;10.07;5.47;;;3.20;99.90;;;;;;5051369;28;20248;-50
2023/01/31 03:50:16;;;;;;;8.90;4.70;;;3.20;99.90;;;;;;5063393;28;20198;-53
2023/01/31 03:52:50;;;;;;;9.93;5.17;;;3.20;99.90;;;;;;5066268;28;20189;-50
2023/01/31 03:55:22;;;;;;;8.83;5.30;;;3.20;99.90;;;;;;5051313;28;20179;-51
2023/01/31 03:57:51;;;;;;;13.30;6.03;;;3.40;99.90;;;;;;5051355;28;20167;-50
2023/01/31 04:00:20;;;;;;;6.93;5.27;;;3.40;99.90;;;;;;5051254;28;20198;-52
2023/01/31 04:02:49;;;;;;;9.73;5.03;;;3.40;99.90;;;;;;5050880;28;20210;-49
2023/01/31 04:05:20;;;;;;;11.13;5.33;;;3.40;99.90;;;;;;5047185;28;20206;-49
2023/01/31 04:07:45;;;;;;;8.33;5.10;;;3.40;99.90;;;;;;5051241;28;20594;-55
2023/01/31 04:10:20;;;;;;;11.17;5.43;;;3.40;99.90;;;;;;5061690;28;20202;-51
2023/01/31 04:12:46;;;;;;;9.57;5.23;;;3.50;99.90;;;;;;5070838;28;20295;-53
2023/01/31 04:15:12;;;;;;;10.07;5.30;;;3.50;99.90;;;;;;5068441;28;20524;-50
2023/01/31 04:17:38;;;;;;;8.80;4.83;;;3.60;99.90;;;;;;5070847;28;20182;-51
2023/01/31 04:20:05;;;;;;;11.47;5.30;;;3.60;99.90;;;;;;5056320;28;20248;-51
2023/01/31 04:22:31;;;;;;;8.40;4.73;;;3.60;99.90;;;;;;5050796;28;20741;-49
2023/01/31 04:24:57;;;;;;;8.93;5.17;;;3.50;99.90;;;;;;5063900;28;20194;-51
2023/01/31 04:27:22;;;;;;;7.07;4.73;;;3.40;99.90;;;;;;5070762;28;20591;-53
2023/01/31 04:29:48;;;;;;;8.50;4.87;;;3.40;99.90;;;;;;5069181;28;20206;-52
2023/01/31 04:32:13;;;;;;;8.70;5.20;;;3.40;99.90;;;;;;5070010;28;20182;-55
2023/01/31 04:34:39;;;;;;;9.80;4.87;;;3.30;99.90;;;;;;5067191;28;20550;-48
2023/01/31 04:37:04;;;;;;;8.50;4.80;;;3.20;99.90;;;;;;5066726;28;20640;-50
2023/01/31 04:39:30;;;;;;;6.63;4.20;;;3.20;99.90;;;;;;5055768;28;20251;-53
2023/01/31 04:41:55;;;;;;;6.17;4.57;;;3.20;99.90;;;;;;5070451;28;20201;-55
2023/01/31 04:44:21;;;;;;;9.10;5.00;;;3.30;99.90;;;;;;5065067;28;20178;-52
2023/01/31 04:46:46;;;;;;;6.60;4.47;;;5.40;99.90;;;;;;5058230;28;20233;-50
2023/01/31 04:49:13;;;;;;;9.23;4.80;;;3.30;99.90;;;;;;5050470;28;20171;-54
2023/01/31 04:51:38;;;;;;;8.60;4.80;;;3.30;99.90;;;;;;5050753;28;20535;-55
2023/01/31 04:54:04;;;;;;;6.87;4.60;;;3.20;99.90;;;;;;5050468;28;20175;-51
2023/01/31 04:56:30;;;;;;;9.07;4.80;;;3.10;99.90;;;;;;5050707;28;20268;-51
2023/01/31 04:58:56;;;;;;;6.63;4.53;;;3.10;99.90;;;;;;5050976;28;20185;-54
2023/01/31 05:01:22;;;;;;;9.50;4.47;;;3.20;99.90;;;;;;5050349;28;20250;-49
2023/01/31 05:03:48;;;;;;;10.43;5.00;;;3.20;99.90;;;;;;5050351;28;20214;-53
2023/01/31 05:06:14;;;;;;;12.63;4.80;;;3.30;99.90;;;;;;5050429;28;20176;-53
2023/01/31 05:08:39;;;;;;;11.20;4.70;;;3.20;99.90;;;;;;5050495;28;20197;-53
2023/01/31 05:11:06;;;;;;;8.00;4.60;;;3.20;99.90;;;;;;5050275;28;20656;-54
2023/01/31 05:13:37;;;;;;;8.20;5.20;;;3.30;99.90;;;;;;5050276;28;20596;-56
2023/01/31 05:16:05;;;;;;;9.30;4.70;;;3.40;99.90;;;;;;5050360;28;20198;-52
2023/01/31 05:18:30;;;;;;;8.87;4.73;;;3.40;99.90;;;;;;5050473;28;20592;-52
2023/01/31 05:20:56;;;;;;;6.97;4.83;;;3.40;99.90;;;;;;5050327;28;20233;-53
2023/01/31 05:23:21;;;;;;;8.93;4.73;;;3.30;99.90;;;;;;5050179;28;20253;-51
2023/01/31 05:25:49;;;;;;;9.73;5.00;;;3.30;99.90;;;;;;5050389;28;20179;-51
2023/01/31 05:28:15;;;;;;;6.80;4.63;;;3.20;99.90;;;;;;5050166;28;20243;-53
2023/01/31 05:30:40;;;;;;;8.57;5.10;;;3.20;99.90;;;;;;5050242;28;20722;-49
2023/01/31 05:33:06;;;;;;;9.67;5.17;;;3.20;99.90;;;;;;5049109;28;20252;-54
2023/01/31 05:35:31;;;;;;;7.40;5.17;;;3.20;99.90;;;;;;5049635;28;20266;-52
2023/01/31 05:37:57;;;;;;;8.43;5.07;;;3.10;99.90;;;;;;5049515;28;20171;-51
2023/01/31 05:40:23;;;;;;;9.03;5.50;;;3.20;99.90;;;;;;5069718;22;20246;-48
2023/01/31 05:42:59;;;;;;;7.13;4.60;;;3.10;99.90;;;;;;5046072;28;20218;-49
2023/01/31 05:45:26;;;;;;;9.03;5.23;;;3.20;99.90;;;;;;5045168;28;20254;-49
2023/01/31 05:47:52;;;;;;;8.53;5.17;;;3.00;99.90;;;;;;5053465;28;20217;-49
2023/01/31 05:50:19;;;;;;;8.17;5.00;;;3.00;99.90;;;;;;5050261;28;20205;-51
2023/01/31 05:52:52;;;;;;;8.77;5.40;;;3.10;99.90;;;;;;5035746;28;20549;-51
2023/01/31 05:55:18;;;;;;;11.47;5.03;;;;;;;;;;5033038;28;20183;-49
2023/01/31 05:57:43;;;;;;;8.53;5.13;;;3.00;99.90;;;;;;5033279;28;20548;-50
2023/01/31 06:00:10;;;;;;;11.87;5.30;;;3.10;99.90;;;;;;5033204;28;20195;-49
2023/01/31 06:02:35;;;;;;;8.63;4.80;;;3.10;99.90;;;;;;5033609;28;20204;-50
2023/01/31 06:05:01;;;;;;;12.60;5.40;;;3.00;99.90;;;;;;5032978;28;20880;-51
2023/01/31 06:07:27;;;;;;;8.57;5.30;;;3.00;99.90;;;;;;5033554;28;20193;-51
2023/01/31 06:09:53;;;;;;;11.40;5.80;;;3.20;99.90;;;;;;5033433;28;20210;-49
2023/01/31 06:12:18;;;;;;;7.90;5.13;;;3.30;99.90;;;;;;5022506;28;20211;-51
2023/01/31 06:14:45;;;;;;;8.20;4.83;;;3.00;99.90;;;;;;5029498;28;20188;-49
2023/01/31 06:17:11;;;;;;;7.67;4.57;;;3.00;99.90;;;;;;5021727;28;20185;-47
2023/01/31 06:19:37;;;;;;;9.93;5.53;;;3.00;99.90;;;;;;5023947;28;20726;-49
2023/01/31 06:22:03;;;;;;;11.13;6.07;;;;;;;;;;5022938;28;20211;-51
2023/01/31 06:24:28;;;;;;;8.50;5.00;;;3.10;99.90;;;;;;5022396;28;20186;-52
2023/01/31 06:26:54;;;;;;;10.13;5.27;;;2.60;99.90;;;;;;5021923;28;20206;-48
2023/01/31 06:29:19;;;;;;;11.03;5.40;;;3.00;99.90;;;;;;5022610;28;20275;-50
2023/01/31 06:31:45;;;;;;;9.30;5.53;;;2.90;99.90;;;;;;5022853;28;20195;-52
2023/01/31 06:34:11;;;;;;;10.97;5.10;;;2.90;99.90;;;;;;5022678;28;20180;-52
2023/01/31 06:36:36;;;;;;;6.97;4.73;;;2.90;99.90;;;;;;5021974;28;20262;-48
2023/01/31 06:39:03;;;;;;;10.90;5.00;;;2.90;99.90;;;;;;5024175;28;20241;-48
2023/01/31 06:41:29;;;;;;;7.63;5.00;;;3.00;99.90;;;;;;5026646;28;20219;-48
2023/01/31 06:43:55;;;;;;;8.67;4.90;;;3.00;99.90;;;;;;5023165;28;20315;-49
2023/01/31 06:46:21;;;;;;;8.93;5.37;;;3.00;99.90;;;;;;5027462;28;20273;-49
2023/01/31 06:48:49;;;;;;;11.73;5.57;;;3.40;99.90;;;;;;5030153;28;20239;-48
2023/01/31 06:51:15;;;;;;;7.43;4.87;;;3.20;99.90;;;;;;5043765;28;20203;-47
2023/01/31 06:53:41;;;;;;;9.53;5.20;;;3.10;99.90;;;;;;5048414;28;20206;-48
2023/01/31 06:56:07;;;;;;;10.70;5.47;;;3.10;99.90;;;;;;5032336;28;20191;-48
2023/01/31 06:58:33;;;;;;;8.10;5.17;;;3.10;99.90;;;;;;5031570;28;20180;-49
2023/01/31 07:01:06;;;;;;;9.80;5.60;;;3.20;99.90;;;;;;5031405;28;20211;-48
2023/01/31 07:03:32;;;;;;;8.77;5.13;;;3.20;99.90;;;;;;5021169;28;20686;-49
2023/01/31 07:05:58;;;;;;;7.00;4.93;;;3.30;99.90;;;;;;5022526;28;20207;-49
2023/01/31 07:08:23;;;;;;;11.47;5.20;;;3.40;99.90;;;;;;5023236;28;20261;-50
2023/01/31 07:10:49;;;;;;;6.57;4.73;;;3.20;99.90;;;;;;5035093;28;20204;-50
2023/01/31 07:13:15;;;;;;;9.27;4.93;;;3.20;99.90;;;;;;5024774;28;20526;-50
2023/01/31 07:15:41;;;;;;;7.90;4.70;;;3.20;99.90;;;;;;5024408;28;20262;-46
2023/01/31 07:18:06;;;;;;;10.77;4.70;;;3.10;99.90;;;;;;5028475;28;20192;-48
2023/01/31 07:20:32;;;;;;;10.73;5.00;;;3.10;99.90;;;;;;5030018;28;20533;-51
2023/01/31 07:22:58;;;;;;;10.73;4.73;;;3.00;99.90;;;;;;5031283;28;20653;-51
2023/01/31 07:25:25;;;;;;;7.20;4.50;;;3.00;99.90;;;;;;5031542;28;20641;-51
2023/01/31 07:27:51;;;;;;;6.77;4.47;;;3.00;99.90;;;;;;5030737;28;20233;-47
2023/01/31 07:30:17;;;;;;;7.03;4.70;;;3.00;99.90;;;;;;5031262;28;20242;-48
2023/01/31 07:32:42;;;;;;;10.00;5.23;;;3.00;99.90;;;;;;5025202;28;20185;-48
2023/01/31 07:35:08;;;;;;;7.40;4.93;;;2.80;99.90;;;;;;5011330;28;20183;-48
2023/01/31 07:37:34;;;;;;;6.80;4.70;;;3.00;99.90;;;;;;5011946;28;20176;-48
2023/01/31 07:39:59;;;;;;;8.80;4.87;;;2.90;99.90;;;;;;5014429;28;20227;-48
2023/01/31 07:42:26;;;;;;;7.57;5.00;;;2.90;99.90;;;;;;5031222;28;20214;-50
2023/01/31 07:44:52;;;;;;;8.67;4.73;;;2.90;99.90;;;;;;5024952;28;20203;-48
2023/01/31 07:47:17;;;;;;;9.90;4.77;;;3.00;99.90;;;;;;5018318;28;20219;-48
2023/01/31 07:49:43;;;;;;;10.63;5.20;;;3.00;99.90;;;;;;5024125;28;20231;-49
2023/01/31 07:52:08;;;;;;;9.03;4.73;;;2.90;99.90;;;;;;5031242;28;20171;-48
2023/01/31 07:54:34;;;;;;;7.30;4.50;;;2.90;99.90;;;;;;5031327;28;20187;-50
2023/01/31 07:56:59;;;;;;;9.17;4.77;;;2.80;99.90;;;;;;5031331;28;20179;-54
2023/01/31 07:59:25;;;;;;;7.33;4.80;;;2.80;99.90;;;;;;5030314;28;20184;-50
2023/01/31 08:04:35;;;;;;;7.83;4.77;;;2.90;99.90;;;;;;5018739;28;20266;-48
2023/01/31 08:07:04;;;;;;;9.47;4.73;;;3.00;99.90;;;;;;5020671;28;20650;-52
2023/01/31 08:09:30;;;;;;;8.00;5.07;;;3.00;99.90;;;;;;5018809;28;20173;-49
2023/01/31 08:11:55;;;;;;;8.60;4.90;;;3.00;99.90;;;;;;5021713;28;20622;-49
2023/01/31 08:14:24;;;;;;;14.87;5.30;;;3.00;99.90;;;;;;5020972;28;20184;-49
2023/01/31 08:16:55;;;;;;;8.20;5.07;;;3.00;99.90;;;;;;5020828;28;20184;-47
2023/01/31 08:19:21;;;;;;;7.40;4.97;;;3.00;99.90;;;;;;5026451;28;20179;-51
2023/01/31 08:21:47;;;;;;;8.97;4.43;;;3.10;99.90;;;;;;5033349;28;20206;-50
2023/01/31 08:24:13;;;;;;;9.57;4.97;;;3.30;99.90;;;;;;5028924;28;20180;-48
2023/01/31 08:26:40;;;;;;;7.47;4.60;;;3.00;99.90;;;;;;5025660;28;20579;-49
2023/01/31 08:29:06;;;;;;;7.40;4.50;;;6.00;99.90;;;;;;5029213;28;20171;-52
2023/01/31 08:31:31;;;;;;;7.73;4.77;;;3.10;99.90;;;;;;5030786;28;20202;-48
2023/01/31 08:33:57;;;;;;;10.97;5.00;;;3.00;99.90;;;;;;5025989;28;20175;-49
2023/01/31 08:36:25;;;;;;;7.50;4.53;;;3.10;99.90;;;;;;5030502;28;20298;-50
2023/01/31 08:38:51;;;;;;;8.47;4.70;;;3.20;99.90;;;;;;5009890;28;20193;-48
2023/01/31 08:41:18;;;;;;;9.83;4.77;;;3.10;99.90;;;;;;5009784;28;20212;-49
2023/01/31 08:43:45;;;;;;;9.80;4.67;;;5.80;99.90;;;;;;5009496;28;20208;-52
2023/01/31 08:46:10;;;;;;;6.00;4.10;;;3.20;99.90;;;;;;5010433;28;20552;-50
2023/01/31 08:48:37;;;;;;;9.07;4.73;;;3.20;99.90;;;;;;5010276;28;20172;-50
2023/01/31 08:51:05;;;;;;;7.40;4.30;;;3.40;99.90;;;;;;5011342;28;20287;-54
2023/01/31 08:53:32;;;;;;;7.63;4.50;;;3.50;99.90;;;;;;5010840;28;20495;-54
2023/01/31 08:56:04;;;;;;;7.43;4.87;;;3.50;99.90;;;;;;5010981;28;20677;-51
2023/01/31 08:58:32;;;;;;;10.30;4.30;;;3.40;99.90;;;;;;5013078;28;20274;-48
2023/01/31 09:01:05;;;;;;;8.03;4.67;;;3.40;99.90;;;;;;5030679;28;20230;-47
2023/01/31 09:03:31;;;;;;;9.37;4.80;;;3.40;99.90;;;;;;5030524;28;20560;-52
2023/01/31 09:06:05;;;;;;;7.23;4.40;;;3.40;99.90;;;;;;5030877;28;20176;-48
2023/01/31 09:08:30;;;;;;;7.67;4.60;;;3.40;99.90;;;;;;5030467;28;20573;-51
2023/01/31 09:10:59;;;;;;;10.10;4.63;;;3.40;99.90;;;;;;5030400;28;20184;-52
2023/01/31 09:13:25;;;;;;;9.87;4.20;;;3.40;99.90;;;;;;5030222;28;20184;-50
2023/01/31 09:16:06;;;;;;;7.03;4.37;;;3.50;99.90;;;;;;5023463;28;20309;-51
2023/01/31 09:18:33;;;;;;;9.37;4.30;;;3.50;99.90;;;;;;5026074;28;20994;-52
2023/01/31 09:21:06;;;;;;;9.73;5.57;;;3.30;99.90;;;;;;5023019;28;20188;-52
2023/01/31 09:23:32;;;;;;;12.07;4.00;;;3.40;99.90;;;;;;5026418;28;20261;-50
2023/01/31 09:25:58;;;;;;;9.53;5.10;;;3.50;99.90;;;;;;5026808;28;20710;-49
2023/01/31 09:28:24;;;;;;;11.57;6.97;;;3.60;99.90;;;;;;5026867;28;20176;-49
2023/01/31 09:30:52;;;;;;;8.70;4.90;;;3.60;99.90;;;;;;5023740;28;20871;-49
2023/01/31 09:33:18;;;;;;;7.80;4.23;;;4.10;99.90;;;;;;5030224;28;20187;-52
2023/01/31 09:35:57;;;;;;;9.30;4.50;;;3.60;99.90;;;;;;5032661;28;20176;-49
2023/01/31 09:38:24;;;;;;;6.93;4.63;;;3.70;99.90;;;;;;5027060;28;20176;-48
2023/01/31 09:40:50;;;;;;;8.17;5.60;;;3.70;99.90;;;;;;5033274;28;20341;-49
2023/01/31 09:43:18;;;;;;;6.47;4.40;;;3.80;99.90;;;;;;5032956;28;20263;-48
2023/01/31 09:45:46;;;;;;;6.87;4.17;;;3.80;99.90;;;;;;5033764;28;20172;-49
2023/01/31 09:48:19;;;;;;;6.13;4.07;;;3.80;99.90;;;;;;5033586;28;20187;-49
2023/01/31 09:50:54;;;;;;;9.93;4.40;;;3.80;99.90;;;;;;5034118;28;20187;-52
2023/01/31 09:53:23;;;;;;;7.37;3.57;;;3.80;99.90;;;;;;5033466;28;20171;-45
2023/01/31 09:56:25;;;;;;;7.60;4.20;;;3.90;99.90;;;;;;5032872;28;20206;-49
2023/01/31 09:59:23;;;;;;;7.10;4.00;;;3.80;99.90;;;;;;5032306;28;20222;-49
2023/01/31 10:02:27;;;;;;;8.53;4.23;;;3.70;99.90;;;;;;4972279;28;20196;-48
2023/01/31 10:05:37;;;;;;;9.97;4.10;;;3.70;99.90;;;;;;4914729;29;20187;-49
2023/01/31 10:08:16;;;;;;;7.83;4.20;;;4.10;99.90;;;;;;4912829;29;20275;-46
2023/01/31 10:11:00;;;;;;;7.50;3.97;;;4.00;99.90;;;;;;4914207;29;20559;-46
2023/01/31 10:13:40;;;;;;;6.73;3.87;;;4.00;99.90;;;;;;4914162;29;20184;-46
2023/01/31 10:16:13;;;;;;;7.77;3.90;;;3.90;99.90;;;;;;4914199;29;20546;-46
2023/01/31 10:18:53;;;;;;;7.67;3.83;;;3.80;99.90;;;;;;4914608;29;20191;-45
2023/01/31 10:21:23;;;;;;;9.73;4.20;;;3.90;99.90;;;;;;4891885;29;20230;-48
2023/01/31 10:24:11;;;;;;;8.50;4.27;;;3.90;99.90;;;;;;4913459;29;20212;-48
2023/01/31 10:26:41;;;;;;;8.00;3.97;;;4.10;99.90;;;;;;4839809;29;20202;-44
2023/01/31 10:29:33;;;;;;;7.23;3.80;;;4.00;99.90;;;;;;4853089;29;20196;-47
2023/01/31 10:32:03;;;;;;;7.97;3.70;;;4.10;99.90;;;;;;4857023;29;20196;-45
2023/01/31 10:34:39;;;;;;;7.77;3.67;;;4.20;99.90;;;;;;4858101;29;20241;-48
2023/01/31 10:37:09;;;;;;;6.00;3.60;;;4.20;99.90;;;;;;4871080;29;20199;-45
2023/01/31 10:40:12;;;;;;;9.73;4.20;;;4.30;99.90;;;;;;4895338;29;20184;-45
2023/01/31 10:42:39;;;;;;;5.53;3.60;;;4.20;99.90;;;;;;4991009;28;20196;-49
2023/01/31 10:45:04;;;;;;;6.50;3.60;;;4.10;99.90;;;;;;4988124;28;20696;-46
2023/01/31 10:47:34;;;;;;;7.33;3.83;;;3.90;99.90;;;;;;4986401;28;20181;-47
2023/01/31 10:50:10;;;;;;;8.53;4.13;;;4.10;99.90;;;;;;4986907;28;20861;-48
2023/01/31 10:52:57;;;;;;;8.27;3.70;;;4.10;99.90;;;;;;4976114;28;20184;-46
2023/01/31 10:55:39;;;;;;;5.07;3.10;;;4.20;99.90;;;;;;4990756;28;20181;-47
2023/01/31 10:58:16;;;;;;;7.47;3.50;;;4.10;99.90;;;;;;4974146;28;20189;-45
2023/01/31 11:00:42;;;;;;;7.67;3.83;;;4.10;99.90;;;;;;4989342;28;20204;-46
2023/01/31 11:03:11;;;;;;;10.33;3.67;;;4.00;99.90;;;;;;5001021;28;20223;-47
2023/01/31 11:05:57;;;;;;;6.00;3.00;;;4.20;99.90;;;;;;5031810;28;20176;-45
2023/01/31 11:08:43;;;;;;;5.77;3.37;;;4.30;99.90;;;;;;5031660;28;20168;-48
2023/01/31 11:11:11;;;;;;;7.80;3.17;;;4.30;99.90;;;;;;5030977;28;20192;-46
2023/01/31 11:13:38;;;;;;;5.87;2.90;;;4.30;99.90;;;;;;5018888;28;20188;-46
2023/01/31 11:16:10;;;;;;;8.57;3.37;;;4.20;99.90;;;;;;5022772;28;20219;-49
2023/01/31 11:18:43;;;;;;;7.57;2.90;;;4.10;99.90;;;;;;5018722;28;20204;-46
2023/01/31 11:21:17;;;;;;;6.43;3.10;;;4.10;99.90;;;;;;5012640;28;20196;-45
2023/01/31 11:23:43;;;;;;;3.27;2.43;;;4.20;99.90;;;;;;5011574;28;20634;-46
2023/01/31 11:26:09;;;;;;;5.63;2.70;;;4.20;99.90;;;;;;5011482;28;20200;-45
2023/01/31 11:28:39;;;;;;;6.83;2.50;;;4.20;99.90;;;;;;5022713;28;20215;-45
2023/01/31 11:31:21;;;;;;;6.03;2.70;;;4.20;99.90;;;;;;5023827;28;20219;-47
2023/01/31 11:33:59;;;;;;;5.57;2.60;;;4.10;99.90;;;;;;5024550;28;20183;-48
2023/01/31 11:36:29;;;;;;;9.77;2.70;;;4.00;99.90;;;;;;5012111;28;20211;-48
2023/01/31 11:38:55;;;;;;;5.23;2.60;;;3.90;99.90;;;;;;5011220;28;20185;-47
2023/01/31 11:41:40;;;;;;;6.83;2.97;;;3.90;99.90;;;;;;5014529;28;20280;-49
2023/01/31 11:44:17;;;;;;;8.73;3.27;;;3.90;99.90;;;;;;5025553;28;20755;-47
2023/01/31 11:46:52;;;;;;;4.90;2.40;;;4.00;99.90;;;;;;5020854;28;20160;-46
2023/01/31 11:49:29;;;;;;;6.90;3.03;;;4.00;99.90;;;;;;5019453;28;20222;-50
2023/01/31 11:52:01;;;;;;;6.90;2.77;;;4.00;99.90;;;;;;5024470;28;20258;-46
2023/01/31 11:54:31;;;;;;;8.37;3.37;;;4.00;99.90;;;;;;5043518;22;20262;-47
2023/01/31 11:56:58;;;;;;;6.93;3.20;;;4.00;99.90;;;;;;5028522;28;20183;-52
2023/01/31 11:59:28;;;;;;;9.83;2.60;;;4.00;99.90;;;;;;5030842;28;20268;-49
2023/01/31 12:01:57;;;;;;;8.80;3.13;;;4.10;99.90;;;;;;5030899;28;20229;-49
2023/01/31 12:04:33;;;;;;;7.57;3.27;;;4.10;99.90;;;;;;5030431;28;20188;-51
2023/01/31 12:07:29;;;;;;;8.03;2.93;;;4.10;99.90;;;;;;5031164;28;20175;-50
2023/01/31 12:09:54;;;;;;;5.83;2.60;;;4.10;99.90;;;;;;5036914;28;20248;-51
2023/01/31 12:12:26;;;;;;;6.73;2.67;;;4.10;99.90;;;;;;5031588;28;20183;-49
2023/01/31 12:14:58;;;;;;;8.67;3.13;;;4.20;99.90;;;;;;5030618;28;20227;-50
2023/01/31 12:17:24;;;;;;;5.73;2.70;;;4.50;99.90;;;;;;5031159;28;20194;-54
2023/01/31 12:20:27;;;;;;;4.93;2.13;;;4.50;99.90;;;;;;5030709;28;20214;-51
2023/01/31 12:23:01;;;;;;;8.97;3.13;;;4.50;99.90;;;;;;5030953;28;20572;-49
2023/01/31 12:25:54;;;;;;;4.97;2.30;;;4.30;99.90;;;;;;5030556;28;20175;-49
2023/01/31 12:28:34;;;;;;;4.87;2.60;;;4.30;99.90;;;;;;5030836;28;20164;-47
2023/01/31 12:31:29;;;;;;;7.37;2.67;;;4.30;99.90;;;;;;5030218;28;20175;-49
2023/01/31 12:34:23;;;;;;;7.73;2.80;;;4.30;99.90;;;;;;5030781;28;20196;-50
2023/01/31 12:37:08;;;;;;;4.17;2.43;;;4.20;99.90;;;;;;5030478;28;20195;-49
2023/01/31 12:39:50;;;;;;;5.97;2.80;;;4.10;99.90;;;;;;5026112;28;20672;-48
2023/01/31 12:42:15;;;;;;;4.60;2.47;;;4.10;99.90;;;;;;5027646;28;20286;-50
2023/01/31 12:45:09;;;;;;;5.53;2.67;;;4.10;99.90;;;;;;5028986;28;20682;-46
2023/01/31 12:48:10;;;;;;;6.63;2.97;;;4.10;99.90;;;;;;4972399;28;20260;-49
2023/01/31 12:51:19;;;;;;;6.63;2.97;;;4.20;99.90;;;;;;4982027;28;20611;-50
2023/01/31 12:54:02;;;;;;;5.07;2.80;;;4.30;99.90;;;;;;4976028;28;20219;-48
2023/01/31 12:56:55;;;;;;;4.63;2.67;;;4.30;99.90;;;;;;4974765;28;20308;-47
2023/01/31 12:59:24;;;;;;;4.63;2.40;;;4.40;99.90;;;;;;4982230;28;20193;-51
2023/01/31 13:01:53;;;;;;;5.20;2.53;;;4.50;99.90;;;;;;4974524;28;20185;-49
2023/01/31 13:04:42;;;;;;;6.90;2.57;;;4.60;99.90;;;;;;4976554;28;20300;-50
2023/01/31 13:07:24;;;;;;;4.80;2.63;;;4.40;99.90;;;;;;4991981;28;20176;-53
2023/01/31 13:09:53;;;;;;;4.87;2.70;;;4.40;99.90;;;;;;4988304;28;20185;-48
2023/01/31 13:12:24;;;;;;;6.03;2.70;;;4.60;99.90;;;;;;4977845;28;20201;-48
2023/01/31 13:15:15;;;;;;;7.20;2.87;;;4.70;99.90;;;;;;4962043;28;20206;-51
2023/01/31 13:17:42;;;;;;;7.37;3.50;;;4.10;99.90;;;;;;4974800;28;20232;-48
2023/01/31 13:20:10;;;;;;;5.47;2.57;;;4.20;99.90;;;;;;4988045;28;20224;-51
2023/01/31 13:22:45;;;;;;;5.33;2.50;;;4.20;99.90;;;;;;4990190;28;20593;-52
2023/01/31 13:25:20;;;;;;;7.57;2.63;;;4.30;99.90;;;;;;5019877;28;20687;-49
2023/01/31 13:27:57;;;;;;;7.30;3.03;;;4.40;99.90;;;;;;5038736;28;20181;-48